IW0RDX-1 Foligno PG IT current weather conditions

sailwx.info

Wind from 202 at 6 knots gusting 18

Air temperature 14.4° C
Dewpoint 8.6° C

Last reported at 2019-Dec-09 11:59 UTC.
Time now 2019-Dec-09 12:26 UTC

Location: N 42°58' E 012°42'.
View on Google Maps.

See reports from other nearby stations

  
Tides and Currents Weather Stations Pressure Air Temp Water Temp Dewpoint Dewpoint Depression Visibility Wind Speed Wind Dir Waves Ship Positions
date/time (UTC)wind fromknots sea level pressurealtimeterstation pressurevisibilityair tempwater tempwave heightnotes
2019-Dec-09 11:59 202 6 gusting 18 14.4
2019-Dec-09 11:54 200 9 gusting 18 14.4
2019-Dec-09 11:49 192 9 gusting 16 14.4
2019-Dec-09 11:44 198 6 gusting 14 14.4
2019-Dec-09 11:39 205 5 gusting 19 15.0
2019-Dec-09 11:34 189 11 gusting 19 14.4
2019-Dec-09 11:29 195 9 gusting 19 14.4
2019-Dec-09 11:24 183 9 gusting 21 14.4
2019-Dec-09 11:19 188 9 gusting 20 15.0
2019-Dec-09 11:14 182 8 gusting 19 15.0
2019-Dec-09 11:09 190 4 gusting 15 15.0
2019-Dec-09 11:04 186 10 gusting 18 15.0
2019-Dec-09 10:59 170 6 gusting 13 14.4
2019-Dec-09 10:54 178 5 gusting 14 14.4
2019-Dec-09 10:49 173 6 gusting 13 13.9
2019-Dec-09 10:44 178 7 gusting 13 13.9
2019-Dec-09 10:39 175 5 gusting 13 13.9
2019-Dec-09 10:34 205 4 gusting 13 13.9
2019-Dec-09 10:29 200 2 gusting 8 13.9
2019-Dec-09 10:24 195 1 gusting 6 13.3
2019-Dec-09 10:19 195 13.3
2019-Dec-09 10:14 194 2 gusting 8 12.8
2019-Dec-09 10:09 190 4 gusting 8 12.8
2019-Dec-09 10:04 189 2 gusting 6 12.8
2019-Dec-09 09:59 189 1 gusting 6 12.8
2019-Dec-09 09:54 187 2 gusting 14 12.8
2019-Dec-09 09:49 193 4 gusting 14 12.8
2019-Dec-09 09:44 201 4 gusting 9 12.8
2019-Dec-09 09:39 190 3 gusting 7 12.8
2019-Dec-09 09:34 196 12.8
2019-Dec-09 09:29 212 0 gusting 9 12.8
2019-Dec-09 09:24 217 4 gusting 15 12.8
2019-Dec-09 09:19 198 5 gusting 15 12.8
2019-Dec-09 09:14 201 5 gusting 12 12.8
2019-Dec-09 09:09 188 6 gusting 14 12.8
2019-Dec-09 09:04 173 9 gusting 14 12.8
2019-Dec-09 08:59 178 9 gusting 19 12.8
2019-Dec-09 08:54 180 11 gusting 19 12.8
2019-Dec-09 08:49 216 9 gusting 19 12.8
2019-Dec-09 08:44 178 10 gusting 19 12.8
2019-Dec-09 08:39 198 5 gusting 17 12.8
2019-Dec-09 08:34 200 6 gusting 18 12.8
2019-Dec-09 08:29 175 10 gusting 19 12.8
2019-Dec-09 08:24 180 9 gusting 19 12.8
2019-Dec-09 08:19 198 6 gusting 14 12.2
2019-Dec-09 08:14 178 5 gusting 14 12.2
2019-Dec-09 08:09 172 9 gusting 14 12.2
2019-Dec-09 08:04 171 7 gusting 13 11.7
2019-Dec-09 07:59 177 4 gusting 9 11.7
2019-Dec-09 07:54 180 1 gusting 4 11.1
2019-Dec-09 07:49 180 0 gusting 3 11.1
2019-Dec-09 07:44 180 11.1
2019-Dec-09 07:39 180 11.1
2019-Dec-09 07:34 180 10.6
2019-Dec-09 07:24 180 10.6
2019-Dec-09 07:19 180 10.6
2019-Dec-09 07:14 180 10.6
2019-Dec-09 07:09 180 10.6
2019-Dec-09 07:04 180 10.6
2019-Dec-09 06:59 180 3 gusting 6 10.6
2019-Dec-09 06:54 178 10.6
2019-Dec-09 06:49 178 10.6
2019-Dec-09 06:44 178 10.6
2019-Dec-09 06:39 178 10.6
2019-Dec-09 06:34 178 10.6
2019-Dec-09 06:29 178 10.6
2019-Dec-09 06:24 178 10.6
2019-Dec-09 06:19 178 10.6
2019-Dec-09 06:14 178 3 gusting 7 10.6
2019-Dec-09 06:09 179 0 gusting 5 10.6
2019-Dec-09 06:04 179 10.6
2019-Dec-09 05:59 179 5 gusting 7 10.6
2019-Dec-09 05:54 179 1 gusting 6 10.6
2019-Dec-09 05:49 179 10.6
2019-Dec-09 05:44 179 3 gusting 8 10.6
2019-Dec-09 05:39 180 2 gusting 8 10.6
2019-Dec-09 05:34 181 5 gusting 8 10.6
2019-Dec-09 05:29 184 0 gusting 6 10.6
2019-Dec-09 05:24 184 1 gusting 6 10.6
2019-Dec-09 05:19 184 10.6
2019-Dec-09 05:14 184 0 gusting 3 10.6
2019-Dec-09 05:09 184 10.6
2019-Dec-09 05:04 184 10.6
2019-Dec-09 04:59 184 10.6
2019-Dec-09 04:54 184 0 gusting 4 10.0
2019-Dec-09 04:49 184 10.0
2019-Dec-09 04:44 184 10.6
2019-Dec-09 04:39 184 10.6
2019-Dec-09 04:34 184 10.6
2019-Dec-09 04:29 184 10.6
2019-Dec-09 04:24 184 0 gusting 6 10.6
2019-Dec-09 04:19 184 3 gusting 6 10.6
2019-Dec-09 04:14 184 11.1
2019-Dec-09 04:09 184 2 gusting 6 11.1
2019-Dec-09 04:04 184 0 gusting 6 11.1
2019-Dec-09 03:59 184 2 gusting 9 11.1
2019-Dec-09 03:54 184 4 gusting 9 11.1
2019-Dec-09 03:49 183 3 gusting 9 11.1
2019-Dec-09 03:44 183 5 gusting 11 11.1
2019-Dec-09 03:39 183 4 gusting 11 11.1
2019-Dec-09 03:34 181 4 gusting 9 11.1
2019-Dec-09 03:29 178 5 gusting 8 11.1
2019-Dec-09 03:24 176 3 gusting 7 11.1
2019-Dec-09 03:19 175 2 gusting 6 11.1
2019-Dec-09 03:14 174 2 gusting 7 11.1
2019-Dec-09 03:09 172 4 gusting 7 11.1
2019-Dec-09 03:04 171 11.1
2019-Dec-09 02:59 171 1 gusting 6 11.1
2019-Dec-09 02:54 171 2 gusting 7 11.1
2019-Dec-09 02:49 171 2 gusting 9 11.1
2019-Dec-09 02:44 171 6 gusting 6 11.1
2019-Dec-09 02:39 171 4 gusting 6 11.1
2019-Dec-09 02:34 170 1 gusting 8 10.6
2019-Dec-09 02:29 170 5 gusting 9 10.6
2019-Dec-09 02:24 169 5 gusting 9 10.6
2019-Dec-09 02:19 171 6 gusting 7 10.6
2019-Dec-09 02:14 171 4 gusting 8 11.1
2019-Dec-09 02:09 171 1 gusting 9 11.1
2019-Dec-09 02:04 175 4 gusting 8 11.1
2019-Dec-09 01:59 176 4 gusting 8 11.1
2019-Dec-09 01:54 178 2 gusting 6 11.1
2019-Dec-09 01:49 179 2 gusting 6 11.1
2019-Dec-09 01:44 179 1 gusting 6 11.1
2019-Dec-09 01:39 179 4 gusting 7 11.1
2019-Dec-09 01:34 179 2 gusting 7 11.1
2019-Dec-09 01:29 179 2 gusting 9 11.1
2019-Dec-09 01:24 178 4 gusting 9 11.1
2019-Dec-09 01:19 178 3 gusting 8 11.1
2019-Dec-09 01:14 178 4 gusting 8 11.1
2019-Dec-09 01:09 178 1 gusting 5 11.1
2019-Dec-09 01:04 178 0 gusting 5 11.1
2019-Dec-09 00:59 178 1 gusting 5 11.1
2019-Dec-09 00:54 178 11.1
2019-Dec-09 00:49 178 11.1
2019-Dec-09 00:44 178 11.1
2019-Dec-09 00:39 178 1 gusting 6 11.1
2019-Dec-09 00:34 178 3 gusting 5 11.1
2019-Dec-09 00:29 178 11.1
2019-Dec-09 00:24 178 11.1
2019-Dec-09 00:19 178 2 gusting 5 11.1
2019-Dec-09 00:14 178 11.1
2019-Dec-09 00:09 178 0 gusting 5 11.1
2019-Dec-09 00:04 178 11.1
2019-Dec-08 23:59 178 0 gusting 3 11.1
2019-Dec-08 23:54 178 11.1
2019-Dec-08 23:49 178 11.1
2019-Dec-08 23:44 178 11.1
2019-Dec-08 23:39 178 11.1
2019-Dec-08 23:34 178 11.1
2019-Dec-08 23:29 178 11.1
2019-Dec-08 23:24 178 11.1
2019-Dec-08 23:19 178 11.1
2019-Dec-08 23:14 178 11.7
2019-Dec-08 23:09 178 11.7
2019-Dec-08 23:04 178 11.7
2019-Dec-08 22:59 178 11.7
2019-Dec-08 22:54 178 11.7
2019-Dec-08 22:49 178 11.7
2019-Dec-08 22:44 178 11.7
2019-Dec-08 22:39 178 11.7
2019-Dec-08 22:34 178 11.7
2019-Dec-08 22:29 178 11.7
2019-Dec-08 22:24 178 11.7
2019-Dec-08 22:19 178 11.7
2019-Dec-08 22:14 178 11.7
2019-Dec-08 22:09 178 11.7
2019-Dec-08 22:04 178 11.7
2019-Dec-08 21:59 178 11.7
2019-Dec-08 21:54 178 3 gusting 5 11.7
2019-Dec-08 21:49 178 3 gusting 5 11.7
2019-Dec-08 21:44 177 0 gusting 5 11.7
2019-Dec-08 21:39 177 3 gusting 5 11.7
2019-Dec-08 21:34 177 0 gusting 6 11.7
2019-Dec-08 21:29 177 3 gusting 7 11.7
2019-Dec-08 21:24 177 1 gusting 7 11.7
2019-Dec-08 21:19 178 3 gusting 8 11.7
2019-Dec-08 21:14 180 3 gusting 8 11.7
2019-Dec-08 21:09 186 4 gusting 8 11.7
2019-Dec-08 21:04 196 1 gusting 6 11.7
2019-Dec-08 20:59 198 2 gusting 6 11.7
2019-Dec-08 20:54 200 11.7
2019-Dec-08 20:49 200 0 gusting 3 11.7
2019-Dec-08 20:44 200 11.7
2019-Dec-08 20:39 200 12.2
2019-Dec-08 20:34 200 12.2
2019-Dec-08 20:29 200 12.2
2019-Dec-08 20:24 200 12.2
2019-Dec-08 20:19 200 12.2
2019-Dec-08 20:14 200 12.2
2019-Dec-08 20:09 200 12.2
2019-Dec-08 20:04 200 12.2
2019-Dec-08 19:59 200 1 gusting 5 12.2
2019-Dec-08 19:54 200 12.2
2019-Dec-08 19:49 200 12.2
2019-Dec-08 19:44 200 12.2
2019-Dec-08 19:39 200 12.2
2019-Dec-08 19:34 200 12.2
2019-Dec-08 19:29 200 12.2
2019-Dec-08 19:24 200 12.2
2019-Dec-08 19:19 200 12.2
2019-Dec-08 19:14 200 12.2
2019-Dec-08 19:09 200 12.2
2019-Dec-08 19:04 200 12.2
2019-Dec-08 18:59 200 12.2
2019-Dec-08 18:54 200 12.2
2019-Dec-08 18:49 200 12.2
2019-Dec-08 18:44 200 12.2
2019-Dec-08 18:39 200 12.2
2019-Dec-08 18:34 200 12.8
2019-Dec-08 18:29 200 12.8
2019-Dec-08 18:24 200 12.8
2019-Dec-08 18:19 200 0 gusting 6 12.8
2019-Dec-08 18:14 200 4 gusting 8 12.8
2019-Dec-08 18:09 201 1 gusting 7 12.8
2019-Dec-08 18:04 201 1 gusting 7 12.8
2019-Dec-08 17:59 202 1 gusting 5 12.8
2019-Dec-08 17:54 202 0 gusting 5 12.8
2019-Dec-08 17:49 202 0 gusting 4 12.8
2019-Dec-08 17:44 202 0 gusting 3 12.8
2019-Dec-08 17:39 202 12.8
2019-Dec-08 17:34 202 13.3
2019-Dec-08 17:29 202 13.3
2019-Dec-08 17:24 202 0 gusting 7 13.3
2019-Dec-08 17:19 202 3 gusting 7 13.3
2019-Dec-08 17:14 203 1 gusting 6 13.3
2019-Dec-08 17:09 203 0 gusting 6 13.3
2019-Dec-08 17:04 205 2 gusting 7 13.3
2019-Dec-08 16:59 205 3 gusting 7 13.3
2019-Dec-08 16:54 205 3 gusting 8 13.9
2019-Dec-08 16:49 205 3 gusting 8 13.9
2019-Dec-08 16:44 206 4 gusting 6 13.9
2019-Dec-08 16:39 206 4 gusting 7 13.9
2019-Dec-08 16:34 206 4 gusting 6 13.9
2019-Dec-08 16:29 206 4 gusting 6 13.9
2019-Dec-08 16:24 206 0 gusting 5 13.9
2019-Dec-08 16:19 206 4 gusting 6 13.9
2019-Dec-08 16:14 206 3 gusting 6 13.9
2019-Dec-08 16:09 206 3 gusting 6 13.9
2019-Dec-08 16:04 206 4 gusting 6 13.9
2019-Dec-08 15:59 206 3 gusting 5 13.9
2019-Dec-08 15:54 206 3 gusting 6 13.9
2019-Dec-08 15:49 206 2 gusting 6 13.9
2019-Dec-08 15:44 206 0 gusting 5 13.9
2019-Dec-08 15:39 206 13.9
2019-Dec-08 15:34 206 13.9
2019-Dec-08 15:29 206 14.4
2019-Dec-08 15:24 206 0 gusting 5 14.4
2019-Dec-08 15:19 206 1 gusting 5 14.4
2019-Dec-08 15:14 206 14.4
2019-Dec-08 15:09 206 2 gusting 5 14.4
2019-Dec-08 15:04 206 14.4
2019-Dec-08 14:59 206 14.4
2019-Dec-08 14:54 206 14.4
2019-Dec-08 14:49 206 14.4
2019-Dec-08 14:44 206 14.4
2019-Dec-08 14:39 206 14.4
2019-Dec-08 14:34 206 14.4
2019-Dec-08 14:29 206 14.4
2019-Dec-08 14:24 206 14.4
2019-Dec-08 14:19 206 14.4
2019-Dec-08 14:14 206 14.4
2019-Dec-08 14:09 206 14.4
2019-Dec-08 14:04 206 14.4
2019-Dec-08 13:59 206 14.4
2019-Dec-08 13:54 206 14.4
2019-Dec-08 13:49 206 0 gusting 3 14.4
2019-Dec-08 13:44 206 14.4
2019-Dec-08 13:39 206 14.4
2019-Dec-08 13:34 206 14.4
2019-Dec-08 13:29 206 14.4
2019-Dec-08 13:24 205 0 gusting 4 14.4
2019-Dec-08 13:19 203 14.4
2019-Dec-08 13:14 201 14.4
2019-Dec-08 13:09 201 14.4
2019-Dec-08 13:04 201 14.4
2019-Dec-08 12:59 201 14.4
2019-Dec-08 12:54 201 14.4
2019-Dec-08 12:49 201 13.9
2019-Dec-08 12:44 201 13.9
2019-Dec-08 12:39 201 13.9
2019-Dec-08 12:34 201 13.9
2019-Dec-08 12:29 201 13.9
2019-Dec-08 12:24 201 13.9
2019-Dec-08 12:19 201 13.9
2019-Dec-08 12:14 201 13.9
2019-Dec-08 12:09 201 13.9
2019-Dec-08 12:04 201 13.9
2019-Dec-08 11:59 201 13.9
2019-Dec-08 11:54 201 13.9
2019-Dec-08 11:49 201 13.3
2019-Dec-08 11:44 201 13.3
2019-Dec-08 11:39 201 13.3
2019-Dec-08 11:34 201 12.8
2019-Dec-08 11:29 201 12.8
2019-Dec-08 11:24 201 12.8
2019-Dec-08 11:19 201 12.2
2019-Dec-08 11:14 201 1 gusting 4 12.2
2019-Dec-08 11:09 196 0 gusting 5 12.2
2019-Dec-08 11:04 194 1 gusting 5 12.2
2019-Dec-08 10:59 192 12.2
2019-Dec-08 10:54 192 12.2
2019-Dec-08 10:49 192 0 gusting 5 12.2
2019-Dec-08 10:44 192 2 gusting 5 12.2
2019-Dec-08 10:39 190 1 gusting 5 12.2
2019-Dec-08 10:34 173 1 gusting 4 12.2
2019-Dec-08 10:29 162 12.2
2019-Dec-08 10:24 161 12.2
2019-Dec-08 10:19 161 12.2
2019-Dec-08 10:14 161 1 gusting 5 11.7
2019-Dec-08 10:09 160 1 gusting 5 12.2
2019-Dec-08 10:04 160 0 gusting 5 12.2
2019-Dec-08 09:59 160 0 gusting 6 12.2
2019-Dec-08 09:54 159 2 gusting 6 12.8
2019-Dec-08 09:49 145 13.3
2019-Dec-08 09:44 145 13.3
2019-Dec-08 09:39 145 13.3
2019-Dec-08 09:34 145 13.3
2019-Dec-08 09:29 145 12.8
2019-Dec-08 09:24 145 12.2
2019-Dec-08 09:19 145 12.2
2019-Dec-08 09:14 145 11.7
2019-Dec-08 09:09 145 0 gusting 6 11.7
2019-Dec-08 09:04 145 1 gusting 6 11.1
2019-Dec-08 08:59 145 1 gusting 6 11.1
2019-Dec-08 08:54 146 1 gusting 4 11.1
2019-Dec-08 08:49 146 10.6
2019-Dec-08 08:44 146 0 gusting 6 10.6
2019-Dec-08 08:39 148 0 gusting 4 10.6
2019-Dec-08 08:34 148 10.6
2019-Dec-08 08:29 148 10.6
2019-Dec-08 08:24 148 10.6
2019-Dec-08 08:19 148 10.6
2019-Dec-08 08:14 148 10.0
2019-Dec-08 08:09 148 10.0
2019-Dec-08 08:04 148 9.4
2019-Dec-08 07:59 148 9.4
2019-Dec-08 07:54 148 8.9
2019-Dec-08 07:49 148 8.9
2019-Dec-08 07:44 148 8.9
2019-Dec-08 07:39 148 8.9
2019-Dec-08 07:34 148 8.3
2019-Dec-08 07:29 148 8.3
2019-Dec-08 07:24 148 8.3
2019-Dec-08 07:19 148 8.3
2019-Dec-08 07:14 150 1 gusting 6 7.8
2019-Dec-08 07:09 159 1 gusting 6 7.8
2019-Dec-08 07:04 163 0 gusting 5 7.8
2019-Dec-08 06:59 163 1 gusting 6 7.8
2019-Dec-08 06:54 165 2 gusting 6 7.8
2019-Dec-08 06:49 172 7.8
2019-Dec-08 06:44 172 8.3
2019-Dec-08 06:39 172 8.3
2019-Dec-08 06:34 172 8.3
2019-Dec-08 06:29 172 8.3
2019-Dec-08 06:24 172 8.3
2019-Dec-08 06:19 172 8.3
2019-Dec-08 06:14 172 8.3
2019-Dec-08 06:09 172 8.3
2019-Dec-08 06:04 172 8.3
2019-Dec-08 05:59 172 8.3
2019-Dec-08 05:54 172 8.9
2019-Dec-08 05:49 172 8.9
2019-Dec-08 05:44 172 8.9
2019-Dec-08 05:39 172 9.4
2019-Dec-08 05:34 172 9.4
2019-Dec-08 05:29 172 9.4
2019-Dec-08 05:24 172 9.4
2019-Dec-08 05:19 172 9.4
2019-Dec-08 05:14 172 9.4
2019-Dec-08 05:09 172 9.4
2019-Dec-08 05:04 172 9.4
2019-Dec-08 04:59 172 9.4
2019-Dec-08 04:54 172 9.4
2019-Dec-08 04:49 172 9.4
2019-Dec-08 04:44 172 10.0
2019-Dec-08 04:39 172 10.0
2019-Dec-08 04:34 172 10.0
2019-Dec-08 04:29 172 10.0
2019-Dec-08 04:24 172 10.0
2019-Dec-08 04:19 172 10.0
2019-Dec-08 04:14 172 10.0
2019-Dec-08 04:09 172 10.0
2019-Dec-08 04:04 172 10.0
2019-Dec-08 03:59 172 10.0
2019-Dec-08 03:54 172 10.0
2019-Dec-08 03:49 172 10.0
2019-Dec-08 03:44 172 10.6
2019-Dec-08 03:39 172 10.6
2019-Dec-08 03:34 172 10.6
2019-Dec-08 03:29 172 10.6
2019-Dec-08 03:24 172 10.6
2019-Dec-08 03:19 172 10.6
2019-Dec-08 03:14 172 10.6
2019-Dec-08 03:09 172 10.6
2019-Dec-08 03:04 172 10.6
2019-Dec-08 02:59 172 10.6
2019-Dec-08 02:54 172 10.6
2019-Dec-08 02:49 172 10.6
2019-Dec-08 02:44 172 10.6
2019-Dec-08 02:39 172 10.6
2019-Dec-08 02:34 172 10.6
2019-Dec-08 02:29 172 10.6
2019-Dec-08 02:24 172 10.6
2019-Dec-08 02:19 172 10.6
2019-Dec-08 02:14 172 10.6
2019-Dec-08 02:09 172 10.6
2019-Dec-08 02:04 172 10.6
2019-Dec-08 01:59 172 10.6
2019-Dec-08 01:54 172 10.6
2019-Dec-08 01:49 172 10.6
2019-Dec-08 01:44 172 10.6
2019-Dec-08 01:39 172 10.6
2019-Dec-08 01:34 172 10.6
2019-Dec-08 01:29 172 11.1
2019-Dec-08 01:24 172 10.6
2019-Dec-08 01:19 172 10.6
2019-Dec-08 01:14 172 10.6
2019-Dec-08 01:09 172 10.6
2019-Dec-08 01:04 172 10.6
2019-Dec-08 00:59 172 11.1
2019-Dec-08 00:54 172 11.1
2019-Dec-08 00:49 172 11.1
2019-Dec-08 00:44 172 11.1
2019-Dec-08 00:39 172 11.1
2019-Dec-08 00:34 172 11.1
2019-Dec-08 00:29 172 11.1
2019-Dec-08 00:24 172 11.1
2019-Dec-08 00:19 172 11.1
2019-Dec-08 00:14 172 11.1
2019-Dec-08 00:09 172 11.1
2019-Dec-08 00:04 172 11.1
2019-Dec-07 23:59 172 11.1
2019-Dec-07 23:54 172 0 gusting 2 11.1
2019-Dec-07 23:49 172 11.1
2019-Dec-07 23:44 172 11.1
2019-Dec-07 23:39 172 11.1
2019-Dec-07 23:34 172 0 gusting 2 11.1
2019-Dec-07 23:29 172 11.1
2019-Dec-07 23:24 172 11.1
2019-Dec-07 23:19 172 11.1
2019-Dec-07 23:14 172 11.1
2019-Dec-07 23:09 172 11.1
2019-Dec-07 23:04 172 11.1
2019-Dec-07 22:59 172 11.1
2019-Dec-07 22:54 172 11.1
2019-Dec-07 22:49 172 11.7
2019-Dec-07 22:44 172 11.7
2019-Dec-07 22:39 172 11.7
2019-Dec-07 22:34 172 11.7
2019-Dec-07 22:29 172 11.7
2019-Dec-07 22:24 172 11.7
2019-Dec-07 22:19 172 11.7
2019-Dec-07 22:14 172 11.7
2019-Dec-07 22:09 172 11.1
2019-Dec-07 22:04 172 11.1
2019-Dec-07 21:59 172 11.1
2019-Dec-07 21:54 172 11.7
2019-Dec-07 21:49 172 11.7
2019-Dec-07 21:44 172 11.7
2019-Dec-07 21:39 172 11.7
2019-Dec-07 21:34 172 11.7
2019-Dec-07 21:29 172 11.7
2019-Dec-07 21:24 172 11.7
2019-Dec-07 21:19 172 11.7
2019-Dec-07 21:14 172 11.7
2019-Dec-07 21:09 172 11.7
2019-Dec-07 21:04 172 11.7
2019-Dec-07 20:59 172 11.7
2019-Dec-07 20:54 172 11.7
2019-Dec-07 20:49 172 11.7
2019-Dec-07 20:44 172 11.7
2019-Dec-07 20:39 172 11.7
2019-Dec-07 20:34 172 11.7
2019-Dec-07 20:29 172 11.7
2019-Dec-07 20:24 172 11.1
2019-Dec-07 20:19 172 11.1
2019-Dec-07 20:14 173 1 gusting 5 11.1
2019-Dec-07 20:09 175 11.1
2019-Dec-07 20:04 175 11.1
2019-Dec-07 19:59 175 11.1
2019-Dec-07 19:54 175 11.1
2019-Dec-07 19:49 175 11.1
2019-Dec-07 19:44 175 11.1
2019-Dec-07 19:39 175 11.1
2019-Dec-07 19:34 175 11.1
2019-Dec-07 19:29 175 11.1
2019-Dec-07 19:24 175 11.1
2019-Dec-07 19:19 175 11.1
2019-Dec-07 19:14 175 0 gusting 3 11.1
2019-Dec-07 19:09 177 0 gusting 3 11.1
2019-Dec-07 19:04 177 11.1
2019-Dec-07 18:59 178 11.1
2019-Dec-07 18:54 178 11.1
2019-Dec-07 18:49 178 11.1
2019-Dec-07 18:44 179 11.1
2019-Dec-07 18:39 179 11.1
2019-Dec-07 18:34 179 11.1
2019-Dec-07 18:29 180 11.1
2019-Dec-07 18:24 180 11.1
2019-Dec-07 18:19 180 11.1
2019-Dec-07 18:14 180 11.1
2019-Dec-07 18:09 180 11.1
2019-Dec-07 18:04 180 11.1
2019-Dec-07 17:59 180 11.1
2019-Dec-07 17:54 180 11.7
2019-Dec-07 17:49 180 11.7
2019-Dec-07 17:44 180 11.7
2019-Dec-07 17:39 180 11.7
2019-Dec-07 17:34 180 11.7
2019-Dec-07 17:29 180 11.7
2019-Dec-07 17:24 180 11.7
2019-Dec-07 17:19 180 11.7
2019-Dec-07 17:14 180 11.7
2019-Dec-07 17:09 180 11.7
2019-Dec-07 17:04 180 12.2
2019-Dec-07 16:59 180 12.2
2019-Dec-07 16:54 180 0 gusting 4 12.2
2019-Dec-07 16:49 184 12.2
2019-Dec-07 16:44 192 12.2
2019-Dec-07 16:39 200 12.2
2019-Dec-07 16:34 202 12.8
2019-Dec-07 16:29 203 0 gusting 4 12.8
2019-Dec-07 16:24 224 0 gusting 4 12.8
2019-Dec-07 16:19 229 0 gusting 3 13.3
2019-Dec-07 16:14 230 13.3
2019-Dec-07 16:09 230 13.3
2019-Dec-07 16:04 230 13.3
2019-Dec-07 15:59 230 13.3
2019-Dec-07 15:54 230 13.3
2019-Dec-07 15:49 230 13.3
2019-Dec-07 15:44 230 13.9
2019-Dec-07 15:39 230 13.9
2019-Dec-07 15:34 230 13.9
2019-Dec-07 15:29 230 13.9
2019-Dec-07 15:24 230 13.9
2019-Dec-07 15:19 230 13.9
2019-Dec-07 15:14 229 13.9
2019-Dec-07 15:09 230 13.9
2019-Dec-07 15:04 230 13.9
2019-Dec-07 14:59 230 13.9
2019-Dec-07 14:54 230 13.9
2019-Dec-07 14:49 229 14.4
2019-Dec-07 14:44 230 14.4
2019-Dec-07 14:39 229 14.4
2019-Dec-07 14:34 229 14.4
2019-Dec-07 14:29 230 14.4
2019-Dec-07 14:24 230 14.4
2019-Dec-07 14:19 229 14.4
2019-Dec-07 14:14 230 14.4
2019-Dec-07 14:09 230 14.4
2019-Dec-07 14:04 229 14.4
2019-Dec-07 13:59 229 0 gusting 2 14.4
2019-Dec-07 13:54 230 14.4
2019-Dec-07 13:49 230 14.4
2019-Dec-07 13:44 230 14.4
2019-Dec-07 13:39 230 2 gusting 6 14.4
2019-Dec-07 13:34 229 4 gusting 6 14.4
2019-Dec-07 13:29 227 3 gusting 6 14.4
2019-Dec-07 13:24 225 1 gusting 6 14.4
2019-Dec-07 13:19 225 14.4
2019-Dec-07 13:14 225 3 gusting 8 14.4
2019-Dec-07 13:09 218 5 gusting 8 14.4
2019-Dec-07 13:04 045 5 gusting 7 14.4
2019-Dec-07 12:59 046 1 gusting 6 14.4
2019-Dec-07 12:54 046 0 gusting 4 14.4
2019-Dec-07 12:49 046 15.0
2019-Dec-07 12:44 046 15.0
2019-Dec-07 12:39 046 15.0
2019-Dec-07 12:34 046 15.0
2019-Dec-07 12:29 046 15.0
2019-Dec-07 12:24 046 15.0
2019-Dec-07 12:19 046 0 gusting 3 15.0
2019-Dec-07 12:14 046 15.0
2019-Dec-07 12:09 046 15.0
2019-Dec-07 12:04 046 15.0